Terminal Aerodrome Forecast
Issued by NWS Wilmington, OH

Current Version | Previous Version | Text Only | Print | Product List | Glossary Off
Versions: 1 2 3 4 5 6 7 8 9 10 11 12 13 14 15 16 17 18 19 20 21 22

000
FTUS41 KILN 201645 AAA
TAFDAY
TAF AMD
KDAY 201645Z 2017/2112 24010KT P6SM SCT050 BKN200
      TEMPO 2017/2018 VRB25KT 2SM TSRA BKN035CB
     FM202200 24010KT P6SM VCSH SCT050 BKN200
     FM210400 26008KT P6SM SCT080=

USA.gov is the U.S. government's official web portal to all federal, state and local government web resources and services.